sensor_id;sensor_type;location;lat;lon;timestamp;temperature;humidity
30764;DHT22;17497;51.476;7.770;2022-09-23T00:01:04;10.10;99.90
30764;DHT22;17497;51.476;7.770;2022-09-23T00:03:34;10.10;99.90
30764;DHT22;17497;51.476;7.770;2022-09-23T00:06:04;10.10;99.90
30764;DHT22;17497;51.476;7.770;2022-09-23T00:08:31;10.10;99.90
30764;DHT22;17497;51.476;7.770;2022-09-23T00:11:11;10.00;99.90
30764;DHT22;17497;51.476;7.770;2022-09-23T00:13:39;10.00;99.90
30764;DHT22;17497;51.476;7.770;2022-09-23T00:16:09;9.90;99.90
30764;DHT22;17497;51.476;7.770;2022-09-23T00:18:36;9.90;99.90
30764;DHT22;17497;51.476;7.770;2022-09-23T00:21:05;9.90;99.90
30764;DHT22;17497;51.476;7.770;2022-09-23T00:26:02;9.90;99.90
30764;DHT22;17497;51.476;7.770;2022-09-23T00:28:30;9.80;99.90
30764;DHT22;17497;51.476;7.770;2022-09-23T00:31:08;9.80;99.90
30764;DHT22;17497;51.476;7.770;2022-09-23T00:33:35;9.80;99.90
30764;DHT22;17497;51.476;7.770;2022-09-23T00:36:04;9.90;99.90
30764;DHT22;17497;51.476;7.770;2022-09-23T00:38:31;9.90;99.90
30764;DHT22;17497;51.476;7.770;2022-09-23T00:40:59;9.90;99.90
30764;DHT22;17497;51.476;7.770;2022-09-23T00:48:53;9.80;99.90
30764;DHT22;17497;51.476;7.770;2022-09-23T00:51:23;9.80;99.90
30764;DHT22;17497;51.476;7.770;2022-09-23T00:53:51;9.70;99.90
30764;DHT22;17497;51.476;7.770;2022-09-23T00:56:20;9.70;99.90
30764;DHT22;17497;51.476;7.770;2022-09-23T00:58:48;9.70;99.90
30764;DHT22;17497;51.476;7.770;2022-09-23T01:01:16;9.70;99.90
30764;DHT22;17497;51.476;7.770;2022-09-23T01:03:44;9.80;99.90
30764;DHT22;17497;51.476;7.770;2022-09-23T01:06:11;9.80;99.90
30764;DHT22;17497;51.476;7.770;2022-09-23T01:08:43;9.80;99.90
30764;DHT22;17497;51.476;7.770;2022-09-23T01:17:04;9.80;99.90
30764;DHT22;17497;51.476;7.770;2022-09-23T01:22:28;9.80;99.90
30764;DHT22;17497;51.476;7.770;2022-09-23T01:44:14;9.80;99.90
30764;DHT22;17497;51.476;7.770;2022-09-23T01:49:27;9.80;99.90
30764;DHT22;17497;51.476;7.770;2022-09-23T01:57:48;9.90;99.90
30764;DHT22;17497;51.476;7.770;2022-09-23T02:00:17;9.90;99.90
30764;DHT22;17497;51.476;7.770;2022-09-23T02:03:20;9.90;99.90
30764;DHT22;17497;51.476;7.770;2022-09-23T02:05:47;9.90;99.90
30764;DHT22;17497;51.476;7.770;2022-09-23T02:08:28;9.90;99.90
30764;DHT22;17497;51.476;7.770;2022-09-23T02:11:04;9.80;99.90
30764;DHT22;17497;51.476;7.770;2022-09-23T02:18:58;9.70;99.90
30764;DHT22;17497;51.476;7.770;2022-09-23T02:21:31;9.60;99.90
30764;DHT22;17497;51.476;7.770;2022-09-23T02:24:14;9.70;99.90
30764;DHT22;17497;51.476;7.770;2022-09-23T02:32:24;9.70;99.90
30764;DHT22;17497;51.476;7.770;2022-09-23T02:34:57;9.70;99.90
30764;DHT22;17497;51.476;7.770;2022-09-23T02:37:38;9.70;99.90
30764;DHT22;17497;51.476;7.770;2022-09-23T02:43:16;9.70;99.90
30764;DHT22;17497;51.476;7.770;2022-09-23T02:45:45;9.70;99.90
30764;DHT22;17497;51.476;7.770;2022-09-23T02:48:17;9.70;99.90
30764;DHT22;17497;51.476;7.770;2022-09-23T02:50:45;9.70;99.90
30764;DHT22;17497;51.476;7.770;2022-09-23T02:53:13;9.70;99.90
30764;DHT22;17497;51.476;7.770;2022-09-23T02:55:43;9.70;99.90
30764;DHT22;17497;51.476;7.770;2022-09-23T02:58:11;9.70;99.90
30764;DHT22;17497;51.476;7.770;2022-09-23T03:05:51;9.70;99.90
30764;DHT22;17497;51.476;7.770;2022-09-23T03:08:53;9.70;99.90
30764;DHT22;17497;51.476;7.770;2022-09-23T03:11:22;9.70;99.90
30764;DHT22;17497;51.476;7.770;2022-09-23T03:14:00;9.70;99.90
30764;DHT22;17497;51.476;7.770;2022-09-23T03:16:46;9.70;99.90
30764;DHT22;17497;51.476;7.770;2022-09-23T03:19:43;9.70;99.90
30764;DHT22;17497;51.476;7.770;2022-09-23T03:22:31;9.70;99.90
30764;DHT22;17497;51.476;7.770;2022-09-23T03:25:04;9.60;99.90
30764;DHT22;17497;51.476;7.770;2022-09-23T03:27:34;9.60;99.90
30764;DHT22;17497;51.476;7.770;2022-09-23T03:30:04;9.60;99.90
30764;DHT22;17497;51.476;7.770;2022-09-23T03:32:33;9.60;99.90
30764;DHT22;17497;51.476;7.770;2022-09-23T03:35:00;9.60;99.90
30764;DHT22;17497;51.476;7.770;2022-09-23T03:37:34;9.60;99.90
30764;DHT22;17497;51.476;7.770;2022-09-23T03:40:14;9.60;99.90
30764;DHT22;17497;51.476;7.770;2022-09-23T03:42:42;9.60;99.90
30764;DHT22;17497;51.476;7.770;2022-09-23T03:45:10;9.50;99.90
30764;DHT22;17497;51.476;7.770;2022-09-23T03:47:40;9.50;99.90
30764;DHT22;17497;51.476;7.770;2022-09-23T03:50:08;9.50;99.90
30764;DHT22;17497;51.476;7.770;2022-09-23T03:52:35;9.50;99.90
30764;DHT22;17497;51.476;7.770;2022-09-23T03:55:06;9.60;99.90
30764;DHT22;17497;51.476;7.770;2022-09-23T03:57:33;9.60;99.90
30764;DHT22;17497;51.476;7.770;2022-09-23T04:00:00;9.50;99.90
30764;DHT22;17497;51.476;7.770;2022-09-23T04:02:27;9.50;99.90
30764;DHT22;17497;51.476;7.770;2022-09-23T04:04:53;9.50;99.90
30764;DHT22;17497;51.476;7.770;2022-09-23T04:07:21;9.40;99.90
30764;DHT22;17497;51.476;7.770;2022-09-23T04:09:48;9.40;99.90
30764;DHT22;17497;51.476;7.770;2022-09-23T04:12:15;9.40;99.90
30764;DHT22;17497;51.476;7.770;2022-09-23T04:14:43;9.40;99.90
30764;DHT22;17497;51.476;7.770;2022-09-23T04:17:10;9.40;99.90
30764;DHT22;17497;51.476;7.770;2022-09-23T04:19:38;9.40;99.90
30764;DHT22;17497;51.476;7.770;2022-09-23T04:22:06;9.40;99.90
30764;DHT22;17497;51.476;7.770;2022-09-23T04:24:33;9.30;99.90
30764;DHT22;17497;51.476;7.770;2022-09-23T04:27:00;9.30;99.90
30764;DHT22;17497;51.476;7.770;2022-09-23T04:29:27;9.30;99.90
30764;DHT22;17497;51.476;7.770;2022-09-23T04:31:53;9.30;99.90
30764;DHT22;17497;51.476;7.770;2022-09-23T04:34:21;9.30;99.90
30764;DHT22;17497;51.476;7.770;2022-09-23T04:36:48;9.30;99.90
30764;DHT22;17497;51.476;7.770;2022-09-23T04:39:15;9.30;99.90
30764;DHT22;17497;51.476;7.770;2022-09-23T04:41:43;9.30;99.90
30764;DHT22;17497;51.476;7.770;2022-09-23T04:44:13;9.30;99.90
30764;DHT22;17497;51.476;7.770;2022-09-23T04:46:41;9.30;99.90
30764;DHT22;17497;51.476;7.770;2022-09-23T04:49:09;9.20;99.90
30764;DHT22;17497;51.476;7.770;2022-09-23T04:51:36;9.20;99.90
30764;DHT22;17497;51.476;7.770;2022-09-23T04:54:03;9.20;99.90
30764;DHT22;17497;51.476;7.770;2022-09-23T04:56:30;9.20;99.90
30764;DHT22;17497;51.476;7.770;2022-09-23T04:59:00;9.20;99.90
30764;DHT22;17497;51.476;7.770;2022-09-23T05:01:32;9.20;99.90
30764;DHT22;17497;51.476;7.770;2022-09-23T05:04:06;9.20;99.90
30764;DHT22;17497;51.476;7.770;2022-09-23T05:06:34;9.20;99.90
30764;DHT22;17497;51.476;7.770;2022-09-23T05:09:03;9.20;99.90
30764;DHT22;17497;51.476;7.770;2022-09-23T05:11:31;9.20;99.90
30764;DHT22;17497;51.476;7.770;2022-09-23T05:13:58;9.20;99.90
30764;DHT22;17497;51.476;7.770;2022-09-23T05:16:26;9.20;99.90
30764;DHT22;17497;51.476;7.770;2022-09-23T05:18:53;9.10;99.90
30764;DHT22;17497;51.476;7.770;2022-09-23T05:21:21;9.20;99.90
30764;DHT22;17497;51.476;7.770;2022-09-23T05:23:53;9.10;99.90
30764;DHT22;17497;51.476;7.770;2022-09-23T05:26:22;9.10;99.90
30764;DHT22;17497;51.476;7.770;2022-09-23T05:28:51;9.10;99.90
30764;DHT22;17497;51.476;7.770;2022-09-23T05:31:20;9.10;99.90
30764;DHT22;17497;51.476;7.770;2022-09-23T05:33:50;9.10;99.90
30764;DHT22;17497;51.476;7.770;2022-09-23T05:36:18;9.00;99.90
30764;DHT22;17497;51.476;7.770;2022-09-23T05:38:47;9.10;99.90
30764;DHT22;17497;51.476;7.770;2022-09-23T05:41:18;9.10;99.90
30764;DHT22;17497;51.476;7.770;2022-09-23T05:43:46;9.20;99.90
30764;DHT22;17497;51.476;7.770;2022-09-23T05:46:21;9.20;99.90
30764;DHT22;17497;51.476;7.770;2022-09-23T05:48:49;9.20;99.90
30764;DHT22;17497;51.476;7.770;2022-09-23T05:51:18;9.20;99.90
30764;DHT22;17497;51.476;7.770;2022-09-23T05:53:46;9.20;99.90
30764;DHT22;17497;51.476;7.770;2022-09-23T05:56:15;9.20;99.90
30764;DHT22;17497;51.476;7.770;2022-09-23T05:58:42;9.20;99.90
30764;DHT22;17497;51.476;7.770;2022-09-23T06:01:14;9.20;99.90
30764;DHT22;17497;51.476;7.770;2022-09-23T06:03:47;9.20;99.90
30764;DHT22;17497;51.476;7.770;2022-09-23T06:06:16;9.30;99.90
30764;DHT22;17497;51.476;7.770;2022-09-23T06:08:44;9.30;99.90
30764;DHT22;17497;51.476;7.770;2022-09-23T06:11:11;9.40;99.90
30764;DHT22;17497;51.476;7.770;2022-09-23T06:13:40;9.40;99.90
30764;DHT22;17497;51.476;7.770;2022-09-23T06:16:11;9.40;99.90
30764;DHT22;17497;51.476;7.770;2022-09-23T06:18:40;9.40;99.90
30764;DHT22;17497;51.476;7.770;2022-09-23T06:21:09;9.50;99.90
30764;DHT22;17497;51.476;7.770;2022-09-23T06:23:37;9.60;99.90
30764;DHT22;17497;51.476;7.770;2022-09-23T06:26:08;9.70;99.90
30764;DHT22;17497;51.476;7.770;2022-09-23T06:28:36;9.70;99.90
30764;DHT22;17497;51.476;7.770;2022-09-23T06:31:06;9.70;99.90
30764;DHT22;17497;51.476;7.770;2022-09-23T06:33:39;9.80;99.90
30764;DHT22;17497;51.476;7.770;2022-09-23T06:36:07;9.80;99.90
30764;DHT22;17497;51.476;7.770;2022-09-23T06:38:37;9.80;99.90
30764;DHT22;17497;51.476;7.770;2022-09-23T06:41:04;9.90;99.90
30764;DHT22;17497;51.476;7.770;2022-09-23T06:43:30;9.90;99.90
30764;DHT22;17497;51.476;7.770;2022-09-23T06:45:59;9.90;99.90
30764;DHT22;17497;51.476;7.770;2022-09-23T06:48:27;10.00;99.90
30764;DHT22;17497;51.476;7.770;2022-09-23T06:50:57;10.00;99.90
30764;DHT22;17497;51.476;7.770;2022-09-23T06:53:24;10.00;99.90
30764;DHT22;17497;51.476;7.770;2022-09-23T06:56:05;10.10;99.90
30764;DHT22;17497;51.476;7.770;2022-09-23T06:58:34;10.10;99.90
30764;DHT22;17497;51.476;7.770;2022-09-23T07:01:06;10.20;99.90
30764;DHT22;17497;51.476;7.770;2022-09-23T07:03:33;10.30;99.90
30764;DHT22;17497;51.476;7.770;2022-09-23T07:06:01;10.30;99.90
30764;DHT22;17497;51.476;7.770;2022-09-23T07:08:29;10.30;99.90
30764;DHT22;17497;51.476;7.770;2022-09-23T07:10:57;10.40;99.90
30764;DHT22;17497;51.476;7.770;2022-09-23T07:13:25;10.40;99.90
30764;DHT22;17497;51.476;7.770;2022-09-23T07:15:53;10.40;99.90
30764;DHT22;17497;51.476;7.770;2022-09-23T07:18:21;10.50;99.90
30764;DHT22;17497;51.476;7.770;2022-09-23T07:20:51;10.60;99.90
30764;DHT22;17497;51.476;7.770;2022-09-23T07:23:18;10.70;99.90
30764;DHT22;17497;51.476;7.770;2022-09-23T07:25:46;10.80;99.90
30764;DHT22;17497;51.476;7.770;2022-09-23T07:28:15;10.90;99.90
30764;DHT22;17497;51.476;7.770;2022-09-23T07:30:42;11.00;99.90
30764;DHT22;17497;51.476;7.770;2022-09-23T07:33:24;11.20;99.90
30764;DHT22;17497;51.476;7.770;2022-09-23T07:35:58;11.30;99.90
30764;DHT22;17497;51.476;7.770;2022-09-23T07:38:24;11.40;99.90
30764;DHT22;17497;51.476;7.770;2022-09-23T07:41:06;11.50;99.90
30764;DHT22;17497;51.476;7.770;2022-09-23T07:43:34;11.60;99.90
30764;DHT22;17497;51.476;7.770;2022-09-23T07:46:04;11.80;99.90
30764;DHT22;17497;51.476;7.770;2022-09-23T07:48:33;11.80;99.90
30764;DHT22;17497;51.476;7.770;2022-09-23T07:51:22;11.90;99.90
30764;DHT22;17497;51.476;7.770;2022-09-23T07:53:50;12.00;99.90
30764;DHT22;17497;51.476;7.770;2022-09-23T07:56:18;12.10;99.90
30764;DHT22;17497;51.476;7.770;2022-09-23T07:58:46;12.20;99.90
30764;DHT22;17497;51.476;7.770;2022-09-23T08:01:39;12.30;99.90
30764;DHT22;17497;51.476;7.770;2022-09-23T08:06:48;12.50;99.90
30764;DHT22;17497;51.476;7.770;2022-09-23T08:09:17;12.60;99.90
30764;DHT22;17497;51.476;7.770;2022-09-23T08:11:44;12.70;99.90
30764;DHT22;17497;51.476;7.770;2022-09-23T08:14:13;12.80;99.90
30764;DHT22;17497;51.476;7.770;2022-09-23T08:16:41;12.90;99.90
30764;DHT22;17497;51.476;7.770;2022-09-23T08:19:07;12.90;99.90
30764;DHT22;17497;51.476;7.770;2022-09-23T08:21:34;13.00;99.90
30764;DHT22;17497;51.476;7.770;2022-09-23T08:24:03;13.20;99.90
30764;DHT22;17497;51.476;7.770;2022-09-23T08:26:29;13.40;99.90
30764;DHT22;17497;51.476;7.770;2022-09-23T08:28:58;13.50;99.90
30764;DHT22;17497;51.476;7.770;2022-09-23T08:31:24;13.50;99.90
30764;DHT22;17497;51.476;7.770;2022-09-23T08:33:55;13.50;99.90
30764;DHT22;17497;51.476;7.770;2022-09-23T08:36:23;13.70;99.90
30764;DHT22;17497;51.476;7.770;2022-09-23T08:38:51;13.80;99.90
30764;DHT22;17497;51.476;7.770;2022-09-23T08:41:37;14.00;99.90
30764;DHT22;17497;51.476;7.770;2022-09-23T08:46:50;14.40;99.90
30764;DHT22;17497;51.476;7.770;2022-09-23T08:49:27;14.50;99.90
30764;DHT22;17497;51.476;7.770;2022-09-23T08:51:59;14.50;99.90
30764;DHT22;17497;51.476;7.770;2022-09-23T08:54:29;14.60;99.90
30764;DHT22;17497;51.476;7.770;2022-09-23T08:56:58;14.80;99.90
30764;DHT22;17497;51.476;7.770;2022-09-23T08:59:43;14.80;99.90
30764;DHT22;17497;51.476;7.770;2022-09-23T09:02:20;15.00;99.90
30764;DHT22;17497;51.476;7.770;2022-09-23T09:05:01;15.10;99.90
30764;DHT22;17497;51.476;7.770;2022-09-23T09:07:33;15.30;99.90
30764;DHT22;17497;51.476;7.770;2022-09-23T09:10:21;15.40;99.90
30764;DHT22;17497;51.476;7.770;2022-09-23T09:13:05;15.50;99.90
30764;DHT22;17497;51.476;7.770;2022-09-23T09:15:40;15.60;99.90
30764;DHT22;17497;51.476;7.770;2022-09-23T09:18:18;15.80;99.90
30764;DHT22;17497;51.476;7.770;2022-09-23T09:23:55;16.00;99.90
30764;DHT22;17497;51.476;7.770;2022-09-23T09:26:28;16.10;99.90
30764;DHT22;17497;51.476;7.770;2022-09-23T09:29:09;16.30;99.90
30764;DHT22;17497;51.476;7.770;2022-09-23T09:31:59;16.30;99.90
30764;DHT22;17497;51.476;7.770;2022-09-23T09:34:42;16.30;99.90
30764;DHT22;17497;51.476;7.770;2022-09-23T09:37:19;16.40;99.90
30764;DHT22;17497;51.476;7.770;2022-09-23T09:39:46;16.40;99.90
30764;DHT22;17497;51.476;7.770;2022-09-23T09:42:20;16.50;99.90
30764;DHT22;17497;51.476;7.770;2022-09-23T09:50:18;16.60;99.90
30764;DHT22;17497;51.476;7.770;2022-09-23T09:53:21;16.80;99.90
30764;DHT22;17497;51.476;7.770;2022-09-23T09:56:06;16.70;99.90
30764;DHT22;17497;51.476;7.770;2022-09-23T10:01:30;16.80;99.90
30764;DHT22;17497;51.476;7.770;2022-09-23T10:04:20;16.60;99.90
30764;DHT22;17497;51.476;7.770;2022-09-23T10:07:05;16.50;99.90
30764;DHT22;17497;51.476;7.770;2022-09-23T10:09:35;16.50;99.90
30764;DHT22;17497;51.476;7.770;2022-09-23T10:12:19;16.70;99.90
30764;DHT22;17497;51.476;7.770;2022-09-23T10:14:48;16.80;99.90
30764;DHT22;17497;51.476;7.770;2022-09-23T10:17:34;17.00;99.90
30764;DHT22;17497;51.476;7.770;2022-09-23T10:20:09;17.00;99.90
30764;DHT22;17497;51.476;7.770;2022-09-23T10:22:41;16.80;99.90
30764;DHT22;17497;51.476;7.770;2022-09-23T10:25:18;16.90;99.90
30764;DHT22;17497;51.476;7.770;2022-09-23T10:27:45;16.90;99.90
30764;DHT22;17497;51.476;7.770;2022-09-23T10:30:24;16.90;99.90
30764;DHT22;17497;51.476;7.770;2022-09-23T10:32:52;17.00;99.90
30764;DHT22;17497;51.476;7.770;2022-09-23T10:35:21;17.10;99.90
30764;DHT22;17497;51.476;7.770;2022-09-23T10:37:58;16.90;99.90
30764;DHT22;17497;51.476;7.770;2022-09-23T10:43:50;16.80;99.90
30764;DHT22;17497;51.476;7.770;2022-09-23T10:55:05;17.30;99.90
30764;DHT22;17497;51.476;7.770;2022-09-23T11:00:56;17.40;99.90
30764;DHT22;17497;51.476;7.770;2022-09-23T11:21:23;18.70;99.90
30764;DHT22;17497;51.476;7.770;2022-09-23T11:24:21;19.10;99.90
30764;DHT22;17497;51.476;7.770;2022-09-23T11:30:03;18.50;99.90
30764;DHT22;17497;51.476;7.770;2022-09-23T11:33:02;18.60;99.90
30764;DHT22;17497;51.476;7.770;2022-09-23T11:38:13;18.50;99.90
30764;DHT22;17497;51.476;7.770;2022-09-23T11:40:43;18.40;99.90
30764;DHT22;17497;51.476;7.770;2022-09-23T11:45:45;18.80;99.90
30764;DHT22;17497;51.476;7.770;2022-09-23T11:51:13;19.30;99.90
30764;DHT22;17497;51.476;7.770;2022-09-23T11:53:48;19.50;99.90
30764;DHT22;17497;51.476;7.770;2022-09-23T11:56:22;19.50;99.90
30764;DHT22;17497;51.476;7.770;2022-09-23T11:59:18;19.80;99.90
30764;DHT22;17497;51.476;7.770;2022-09-23T12:02:04;20.00;99.90
30764;DHT22;17497;51.476;7.770;2022-09-23T12:08:00;20.70;99.90
30764;DHT22;17497;51.476;7.770;2022-09-23T12:10:58;20.60;99.90
30764;DHT22;17497;51.476;7.770;2022-09-23T12:27:38;22.80;97.10
30764;DHT22;17497;51.476;7.770;2022-09-23T12:32:40;21.50;96.80
30764;DHT22;17497;51.476;7.770;2022-09-23T12:35:24;21.20;97.90
30764;DHT22;17497;51.476;7.770;2022-09-23T12:37:52;21.30;97.70
30764;DHT22;17497;51.476;7.770;2022-09-23T12:40:31;21.90;95.20
30764;DHT22;17497;51.476;7.770;2022-09-23T12:43:01;22.40;95.60
30764;DHT22;17497;51.476;7.770;2022-09-23T12:48:02;21.40;93.70
30764;DHT22;17497;51.476;7.770;2022-09-23T12:56:02;21.20;95.70
30764;DHT22;17497;51.476;7.770;2022-09-23T13:01:18;20.50;95.20
30764;DHT22;17497;51.476;7.770;2022-09-23T13:03:50;20.50;96.20
30764;DHT22;17497;51.476;7.770;2022-09-23T13:07:05;20.50;96.60
30764;DHT22;17497;51.476;7.770;2022-09-23T13:09:41;20.30;95.90
30764;DHT22;17497;51.476;7.770;2022-09-23T13:12:23;19.70;95.80
30764;DHT22;17497;51.476;7.770;2022-09-23T13:14:57;19.30;97.70
30764;DHT22;17497;51.476;7.770;2022-09-23T13:17:37;19.00;98.50
30764;DHT22;17497;51.476;7.770;2022-09-23T13:25:21;18.90;98.70
30764;DHT22;17497;51.476;7.770;2022-09-23T13:27:53;19.00;99.70
30764;DHT22;17497;51.476;7.770;2022-09-23T13:30:22;18.90;99.90
30764;DHT22;17497;51.476;7.770;2022-09-23T13:33:09;18.90;99.70
30764;DHT22;17497;51.476;7.770;2022-09-23T13:35:45;19.00;99.90
30764;DHT22;17497;51.476;7.770;2022-09-23T13:40:53;18.30;99.40
30764;DHT22;17497;51.476;7.770;2022-09-23T13:43:26;18.30;99.90
30764;DHT22;17497;51.476;7.770;2022-09-23T13:45:53;18.20;99.90
30764;DHT22;17497;51.476;7.770;2022-09-23T13:48:22;18.20;99.90
30764;DHT22;17497;51.476;7.770;2022-09-23T13:50:51;18.20;99.80
30764;DHT22;17497;51.476;7.770;2022-09-23T13:53:30;18.20;99.90
30764;DHT22;17497;51.476;7.770;2022-09-23T13:56:11;18.10;99.90
30764;DHT22;17497;51.476;7.770;2022-09-23T13:58:39;17.90;99.60
30764;DHT22;17497;51.476;7.770;2022-09-23T14:01:08;17.80;99.90
30764;DHT22;17497;51.476;7.770;2022-09-23T14:03:37;17.70;99.90
30764;DHT22;17497;51.476;7.770;2022-09-23T14:06:10;17.70;99.90
30764;DHT22;17497;51.476;7.770;2022-09-23T14:08:44;17.70;99.90
30764;DHT22;17497;51.476;7.770;2022-09-23T14:11:15;17.70;99.90
30764;DHT22;17497;51.476;7.770;2022-09-23T14:13:44;17.60;99.90
30764;DHT22;17497;51.476;7.770;2022-09-23T14:16:13;17.50;99.90
30764;DHT22;17497;51.476;7.770;2022-09-23T14:18:45;17.50;99.90
30764;DHT22;17497;51.476;7.770;2022-09-23T14:21:27;17.40;99.90
30764;DHT22;17497;51.476;7.770;2022-09-23T14:23:54;17.40;99.90
30764;DHT22;17497;51.476;7.770;2022-09-23T14:26:22;17.30;99.90
30764;DHT22;17497;51.476;7.770;2022-09-23T14:28:49;17.30;99.90
30764;DHT22;17497;51.476;7.770;2022-09-23T14:31:17;17.30;99.90
30764;DHT22;17497;51.476;7.770;2022-09-23T14:33:44;17.30;99.90
30764;DHT22;17497;51.476;7.770;2022-09-23T14:36:16;17.40;99.90
30764;DHT22;17497;51.476;7.770;2022-09-23T14:39:09;17.30;99.90
30764;DHT22;17497;51.476;7.770;2022-09-23T14:41:38;17.30;99.90
30764;DHT22;17497;51.476;7.770;2022-09-23T14:44:13;17.10;99.90
30764;DHT22;17497;51.476;7.770;2022-09-23T14:46:54;17.10;99.90
30764;DHT22;17497;51.476;7.770;2022-09-23T14:49:22;17.10;99.90
30764;DHT22;17497;51.476;7.770;2022-09-23T14:51:54;17.10;99.90
30764;DHT22;17497;51.476;7.770;2022-09-23T14:56:53;17.00;99.90
30764;DHT22;17497;51.476;7.770;2022-09-23T14:59:33;17.10;99.90
30764;DHT22;17497;51.476;7.770;2022-09-23T15:04:47;17.10;99.90
30764;DHT22;17497;51.476;7.770;2022-09-23T15:07:16;17.10;99.90
30764;DHT22;17497;51.476;7.770;2022-09-23T15:09:44;17.00;99.90
30764;DHT22;17497;51.476;7.770;2022-09-23T15:14:42;17.00;99.90
30764;DHT22;17497;51.476;7.770;2022-09-23T15:17:33;16.80;99.90
30764;DHT22;17497;51.476;7.770;2022-09-23T15:20:07;16.80;99.90
30764;DHT22;17497;51.476;7.770;2022-09-23T15:22:48;16.80;99.90
30764;DHT22;17497;51.476;7.770;2022-09-23T15:28:18;16.80;99.90
30764;DHT22;17497;51.476;7.770;2022-09-23T15:30:49;16.80;99.90
30764;DHT22;17497;51.476;7.770;2022-09-23T15:33:15;16.90;99.90
30764;DHT22;17497;51.476;7.770;2022-09-23T15:35:45;16.80;99.90
30764;DHT22;17497;51.476;7.770;2022-09-23T15:38:12;16.70;99.90
30764;DHT22;17497;51.476;7.770;2022-09-23T15:40:39;16.70;99.90
30764;DHT22;17497;51.476;7.770;2022-09-23T15:45:57;16.60;99.90
30764;DHT22;17497;51.476;7.770;2022-09-23T15:48:36;16.60;99.90
30764;DHT22;17497;51.476;7.770;2022-09-23T15:51:06;16.50;99.90
30764;DHT22;17497;51.476;7.770;2022-09-23T15:53:35;16.60;99.90
30764;DHT22;17497;51.476;7.770;2022-09-23T15:56:05;16.50;99.90
30764;DHT22;17497;51.476;7.770;2022-09-23T15:58:32;16.50;99.90
30764;DHT22;17497;51.476;7.770;2022-09-23T16:00:59;16.50;99.90
30764;DHT22;17497;51.476;7.770;2022-09-23T16:03:27;16.40;99.90
30764;DHT22;17497;51.476;7.770;2022-09-23T16:06:00;16.40;99.90
30764;DHT22;17497;51.476;7.770;2022-09-23T16:08:31;16.40;99.90
30764;DHT22;17497;51.476;7.770;2022-09-23T16:10:58;16.30;99.90
30764;DHT22;17497;51.476;7.770;2022-09-23T16:13:25;16.30;99.90
30764;DHT22;17497;51.476;7.770;2022-09-23T16:15:52;16.30;99.90
30764;DHT22;17497;51.476;7.770;2022-09-23T16:18:18;16.20;99.90
30764;DHT22;17497;51.476;7.770;2022-09-23T16:20:45;16.20;99.90
30764;DHT22;17497;51.476;7.770;2022-09-23T16:23:30;16.20;99.90
30764;DHT22;17497;51.476;7.770;2022-09-23T16:28:49;16.20;99.90
30764;DHT22;17497;51.476;7.770;2022-09-23T16:31:16;16.20;99.90
30764;DHT22;17497;51.476;7.770;2022-09-23T16:33:47;16.20;99.90
30764;DHT22;17497;51.476;7.770;2022-09-23T16:36:21;16.10;99.90
30764;DHT22;17497;51.476;7.770;2022-09-23T16:38:49;16.10;99.90
30764;DHT22;17497;51.476;7.770;2022-09-23T16:41:15;16.00;99.90
30764;DHT22;17497;51.476;7.770;2022-09-23T16:43:42;16.00;99.90
30764;DHT22;17497;51.476;7.770;2022-09-23T16:46:11;16.00;99.90
30764;DHT22;17497;51.476;7.770;2022-09-23T16:48:39;15.90;99.90
30764;DHT22;17497;51.476;7.770;2022-09-23T16:51:17;15.90;99.90
30764;DHT22;17497;51.476;7.770;2022-09-23T16:53:47;15.80;99.90
30764;DHT22;17497;51.476;7.770;2022-09-23T16:56:15;15.80;99.90
30764;DHT22;17497;51.476;7.770;2022-09-23T16:58:43;15.80;99.90
30764;DHT22;17497;51.476;7.770;2022-09-23T17:01:28;15.70;99.90
30764;DHT22;17497;51.476;7.770;2022-09-23T17:04:15;15.70;99.90
30764;DHT22;17497;51.476;7.770;2022-09-23T17:06:50;15.60;99.90
30764;DHT22;17497;51.476;7.770;2022-09-23T17:09:24;15.60;99.90
30764;DHT22;17497;51.476;7.770;2022-09-23T17:12:00;15.60;99.90
30764;DHT22;17497;51.476;7.770;2022-09-23T17:14:29;15.60;99.90
30764;DHT22;17497;51.476;7.770;2022-09-23T17:16:57;15.60;99.90
30764;DHT22;17497;51.476;7.770;2022-09-23T17:19:24;15.50;99.90
30764;DHT22;17497;51.476;7.770;2022-09-23T17:21:52;15.50;99.90
30764;DHT22;17497;51.476;7.770;2022-09-23T17:24:18;15.50;99.90
30764;DHT22;17497;51.476;7.770;2022-09-23T17:26:45;15.40;99.90
30764;DHT22;17497;51.476;7.770;2022-09-23T17:29:18;15.40;99.90
30764;DHT22;17497;51.476;7.770;2022-09-23T17:31:45;15.40;99.90
30764;DHT22;17497;51.476;7.770;2022-09-23T17:34:12;15.40;99.90
30764;DHT22;17497;51.476;7.770;2022-09-23T17:36:38;15.30;99.90
30764;DHT22;17497;51.476;7.770;2022-09-23T17:39:05;15.30;99.90
30764;DHT22;17497;51.476;7.770;2022-09-23T17:41:32;15.30;99.90
30764;DHT22;17497;51.476;7.770;2022-09-23T17:43:59;15.30;99.90
30764;DHT22;17497;51.476;7.770;2022-09-23T17:46:26;15.30;99.90
30764;DHT22;17497;51.476;7.770;2022-09-23T17:48:55;15.20;99.90
30764;DHT22;17497;51.476;7.770;2022-09-23T17:51:23;15.20;99.90
30764;DHT22;17497;51.476;7.770;2022-09-23T17:53:50;15.20;99.90
30764;DHT22;17497;51.476;7.770;2022-09-23T17:56:21;15.10;99.90
30764;DHT22;17497;51.476;7.770;2022-09-23T17:58:49;15.10;99.90
30764;DHT22;17497;51.476;7.770;2022-09-23T18:01:20;15.00;99.90
30764;DHT22;17497;51.476;7.770;2022-09-23T18:03:51;15.00;99.90
30764;DHT22;17497;51.476;7.770;2022-09-23T18:06:19;15.00;99.90
30764;DHT22;17497;51.476;7.770;2022-09-23T18:08:48;14.90;99.90
30764;DHT22;17497;51.476;7.770;2022-09-23T18:11:26;14.90;99.90
30764;DHT22;17497;51.476;7.770;2022-09-23T18:13:59;14.90;99.90
30764;DHT22;17497;51.476;7.770;2022-09-23T18:16:34;14.90;99.90
30764;DHT22;17497;51.476;7.770;2022-09-23T18:19:03;14.90;99.90
30764;DHT22;17497;51.476;7.770;2022-09-23T18:21:35;14.90;99.90
30764;DHT22;17497;51.476;7.770;2022-09-23T18:24:02;14.80;99.90
30764;DHT22;17497;51.476;7.770;2022-09-23T18:26:49;14.80;99.90
30764;DHT22;17497;51.476;7.770;2022-09-23T18:29:16;14.70;99.90
30764;DHT22;17497;51.476;7.770;2022-09-23T18:31:45;14.70;99.90
30764;DHT22;17497;51.476;7.770;2022-09-23T18:34:15;14.60;99.90
30764;DHT22;17497;51.476;7.770;2022-09-23T18:36:43;14.60;99.90
30764;DHT22;17497;51.476;7.770;2022-09-23T18:39:11;14.50;99.90
30764;DHT22;17497;51.476;7.770;2022-09-23T18:41:38;14.60;99.90
30764;DHT22;17497;51.476;7.770;2022-09-23T18:44:04;14.50;99.90
30764;DHT22;17497;51.476;7.770;2022-09-23T18:46:31;14.50;99.90
30764;DHT22;17497;51.476;7.770;2022-09-23T18:48:59;14.50;99.90
30764;DHT22;17497;51.476;7.770;2022-09-23T18:51:52;14.50;99.90
30764;DHT22;17497;51.476;7.770;2022-09-23T18:54:26;14.50;99.90
30764;DHT22;17497;51.476;7.770;2022-09-23T18:56:54;14.50;99.90
30764;DHT22;17497;51.476;7.770;2022-09-23T18:59:23;14.50;99.90
30764;DHT22;17497;51.476;7.770;2022-09-23T19:01:50;14.40;99.90
30764;DHT22;17497;51.476;7.770;2022-09-23T19:04:22;14.40;99.90